sensor_id;sensor_type;location;lat;lon;timestamp;P1;durP1;ratioP1;P2;durP2;ratioP2
14708;SDS011;7445;50.774;4.944;2023-06-22T06:51:51;29.70;;;25.47;;
14708;SDS011;7445;50.774;4.944;2023-06-22T06:54:18;26.43;;;24.03;;
14708;SDS011;7445;50.774;4.944;2023-06-22T06:56:45;29.03;;;26.30;;
14708;SDS011;7445;50.774;4.944;2023-06-22T06:59:13;26.47;;;23.83;;
14708;SDS011;7445;50.774;4.944;2023-06-22T07:01:41;28.83;;;26.00;;
14708;SDS011;7445;50.774;4.944;2023-06-22T07:04:09;29.07;;;26.07;;
14708;SDS011;7445;50.774;4.944;2023-06-22T07:06:35;28.13;;;25.13;;
14708;SDS011;7445;50.774;4.944;2023-06-22T07:09:01;26.63;;;24.20;;
14708;SDS011;7445;50.774;4.944;2023-06-22T07:11:28;27.77;;;24.63;;
14708;SDS011;7445;50.774;4.944;2023-06-22T07:13:54;25.10;;;22.87;;
14708;SDS011;7445;50.774;4.944;2023-06-22T07:16:19;25.07;;;22.57;;
14708;SDS011;7445;50.774;4.944;2023-06-22T07:18:45;25.47;;;22.83;;
14708;SDS011;7445;50.774;4.944;2023-06-22T07:21:10;25.03;;;22.63;;
14708;SDS011;7445;50.774;4.944;2023-06-22T07:23:36;25.07;;;22.50;;
14708;SDS011;7445;50.774;4.944;2023-06-22T07:26:02;22.97;;;20.80;;
14708;SDS011;7445;50.774;4.944;2023-06-22T07:28:28;25.67;;;22.80;;
14708;SDS011;7445;50.774;4.944;2023-06-22T07:30:56;24.42;;;21.60;;
14708;SDS011;7445;50.774;4.944;2023-06-22T07:33:22;23.38;;;21.35;;
14708;SDS011;7445;50.774;4.944;2023-06-22T07:35:47;23.70;;;21.27;;
14708;SDS011;7445;50.774;4.944;2023-06-22T07:38:13;24.87;;;21.80;;
14708;SDS011;7445;50.774;4.944;2023-06-22T07:40:40;22.70;;;20.63;;
14708;SDS011;7445;50.774;4.944;2023-06-22T07:43:06;23.90;;;21.50;;
14708;SDS011;7445;50.774;4.944;2023-06-22T07:45:32;32.90;;;22.63;;
14708;SDS011;7445;50.774;4.944;2023-06-22T07:48:00;22.05;;;20.02;;
14708;SDS011;7445;50.774;4.944;2023-06-22T07:50:26;24.13;;;21.95;;
14708;SDS011;7445;50.774;4.944;2023-06-22T07:52:51;23.27;;;20.90;;
14708;SDS011;7445;50.774;4.944;2023-06-22T07:55:17;22.38;;;20.20;;
14708;SDS011;7445;50.774;4.944;2023-06-22T07:57:43;21.48;;;19.33;;
14708;SDS011;7445;50.774;4.944;2023-06-22T08:00:09;23.70;;;21.13;;
14708;SDS011;7445;50.774;4.944;2023-06-22T08:02:40;24.03;;;19.60;;
14708;SDS011;7445;50.774;4.944;2023-06-22T08:05:07;24.52;;;20.50;;
14708;SDS011;7445;50.774;4.944;2023-06-22T08:07:34;23.10;;;20.67;;
14708;SDS011;7445;50.774;4.944;2023-06-22T08:10:02;22.03;;;19.83;;
14708;SDS011;7445;50.774;4.944;2023-06-22T08:12:28;28.10;;;20.13;;
14708;SDS011;7445;50.774;4.944;2023-06-22T08:14:54;24.52;;;20.10;;
14708;SDS011;7445;50.774;4.944;2023-06-22T08:17:20;25.65;;;20.20;;
14708;SDS011;7445;50.774;4.944;2023-06-22T08:19:45;28.60;;;21.52;;
14708;SDS011;7445;50.774;4.944;2023-06-22T08:22:11;25.52;;;21.10;;
14708;SDS011;7445;50.774;4.944;2023-06-22T08:24:36;20.10;;;18.20;;
14708;SDS011;7445;50.774;4.944;2023-06-22T08:27:02;24.35;;;20.45;;
14708;SDS011;7445;50.774;4.944;2023-06-22T08:29:28;22.15;;;20.05;;
14708;SDS011;7445;50.774;4.944;2023-06-22T08:31:53;21.30;;;19.17;;
14708;SDS011;7445;50.774;4.944;2023-06-22T08:34:19;27.63;;;19.65;;
14708;SDS011;7445;50.774;4.944;2023-06-22T08:36:48;20.45;;;18.48;;
14708;SDS011;7445;50.774;4.944;2023-06-22T08:39:16;23.17;;;20.50;;
14708;SDS011;7445;50.774;4.944;2023-06-22T08:41:42;24.25;;;21.70;;
14708;SDS011;7445;50.774;4.944;2023-06-22T08:44:08;21.20;;;19.20;;
14708;SDS011;7445;50.774;4.944;2023-06-22T08:46:33;23.92;;;21.80;;
14708;SDS011;7445;50.774;4.944;2023-06-22T08:48:59;22.27;;;20.08;;
14708;SDS011;7445;50.774;4.944;2023-06-22T08:51:25;22.42;;;20.52;;
14708;SDS011;7445;50.774;4.944;2023-06-22T08:53:51;22.25;;;20.10;;
14708;SDS011;7445;50.774;4.944;2023-06-22T08:56:17;23.67;;;21.42;;
14708;SDS011;7445;50.774;4.944;2023-06-22T08:58:43;22.45;;;20.40;;
14708;SDS011;7445;50.774;4.944;2023-06-22T09:01:09;23.35;;;21.35;;
14708;SDS011;7445;50.774;4.944;2023-06-22T09:03:34;21.90;;;19.83;;
14708;SDS011;7445;50.774;4.944;2023-06-22T09:06:02;24.33;;;21.98;;
14708;SDS011;7445;50.774;4.944;2023-06-22T09:08:27;26.77;;;23.75;;
14708;SDS011;7445;50.774;4.944;2023-06-22T09:10:53;26.23;;;23.85;;
14708;SDS011;7445;50.774;4.944;2023-06-22T09:13:18;26.20;;;23.65;;
14708;SDS011;7445;50.774;4.944;2023-06-22T09:15:44;26.52;;;24.23;;
14708;SDS011;7445;50.774;4.944;2023-06-22T09:18:10;26.05;;;23.77;;
14708;SDS011;7445;50.774;4.944;2023-06-22T09:20:36;30.20;;;27.42;;
14708;SDS011;7445;50.774;4.944;2023-06-22T09:23:02;29.10;;;26.65;;
14708;SDS011;7445;50.774;4.944;2023-06-22T09:25:28;27.65;;;25.23;;
14708;SDS011;7445;50.774;4.944;2023-06-22T09:27:53;28.60;;;26.00;;
14708;SDS011;7445;50.774;4.944;2023-06-22T09:30:19;27.13;;;24.50;;
14708;SDS011;7445;50.774;4.944;2023-06-22T09:32:45;27.08;;;24.58;;
14708;SDS011;7445;50.774;4.944;2023-06-22T09:35:11;24.15;;;22.05;;
14708;SDS011;7445;50.774;4.944;2023-06-22T09:37:39;23.73;;;21.73;;
14708;SDS011;7445;50.774;4.944;2023-06-22T09:40:06;22.13;;;20.17;;
14708;SDS011;7445;50.774;4.944;2023-06-22T09:42:36;25.75;;;23.13;;
14708;SDS011;7445;50.774;4.944;2023-06-22T09:45:02;23.75;;;21.73;;
14708;SDS011;7445;50.774;4.944;2023-06-22T09:47:28;23.85;;;21.60;;
14708;SDS011;7445;50.774;4.944;2023-06-22T09:49:54;24.67;;;22.13;;
14708;SDS011;7445;50.774;4.944;2023-06-22T09:52:20;29.65;;;27.13;;
14708;SDS011;7445;50.774;4.944;2023-06-22T09:54:46;27.25;;;24.95;;
14708;SDS011;7445;50.774;4.944;2023-06-22T09:57:12;29.85;;;27.10;;
14708;SDS011;7445;50.774;4.944;2023-06-22T09:59:38;27.50;;;25.23;;
14708;SDS011;7445;50.774;4.944;2023-06-22T10:02:06;31.38;;;28.77;;
14708;SDS011;7445;50.774;4.944;2023-06-22T10:04:33;29.60;;;26.90;;
14708;SDS011;7445;50.774;4.944;2023-06-22T10:07:02;34.35;;;31.40;;
14708;SDS011;7445;50.774;4.944;2023-06-22T10:09:28;29.83;;;26.92;;
14708;SDS011;7445;50.774;4.944;2023-06-22T10:11:54;32.53;;;29.85;;
14708;SDS011;7445;50.774;4.944;2023-06-22T10:14:19;34.10;;;30.93;;
14708;SDS011;7445;50.774;4.944;2023-06-22T10:16:45;34.00;;;30.10;;
14708;SDS011;7445;50.774;4.944;2023-06-22T10:19:10;39.35;;;35.95;;
14708;SDS011;7445;50.774;4.944;2023-06-22T10:21:36;37.22;;;33.55;;
14708;SDS011;7445;50.774;4.944;2023-06-22T10:24:02;37.80;;;34.57;;
14708;SDS011;7445;50.774;4.944;2023-06-22T10:26:34;38.67;;;35.20;;
14708;SDS011;7445;50.774;4.944;2023-06-22T10:29:00;39.33;;;35.22;;
14708;SDS011;7445;50.774;4.944;2023-06-22T10:31:29;35.43;;;32.33;;
14708;SDS011;7445;50.774;4.944;2023-06-22T10:33:55;35.67;;;32.53;;
14708;SDS011;7445;50.774;4.944;2023-06-22T10:36:20;37.03;;;33.73;;
14708;SDS011;7445;50.774;4.944;2023-06-22T10:38:49;38.53;;;34.70;;
14708;SDS011;7445;50.774;4.944;2023-06-22T10:41:14;39.77;;;35.97;;
14708;SDS011;7445;50.774;4.944;2023-06-22T10:43:41;41.27;;;37.67;;
14708;SDS011;7445;50.774;4.944;2023-06-22T10:46:06;39.80;;;35.90;;
14708;SDS011;7445;50.774;4.944;2023-06-22T10:48:32;39.87;;;36.07;;
14708;SDS011;7445;50.774;4.944;2023-06-22T10:50:58;41.87;;;37.80;;
14708;SDS011;7445;50.774;4.944;2023-06-22T10:53:24;42.83;;;38.70;;
14708;SDS011;7445;50.774;4.944;2023-06-22T10:55:49;41.00;;;36.83;;
14708;SDS011;7445;50.774;4.944;2023-06-22T10:58:17;43.27;;;39.03;;
14708;SDS011;7445;50.774;4.944;2023-06-22T11:00:44;43.87;;;39.97;;
14708;SDS011;7445;50.774;4.944;2023-06-22T11:03:09;48.47;;;43.77;;
14708;SDS011;7445;50.774;4.944;2023-06-22T11:05:35;47.87;;;43.30;;
14708;SDS011;7445;50.774;4.944;2023-06-22T11:08:00;49.07;;;44.60;;
14708;SDS011;7445;50.774;4.944;2023-06-22T11:10:26;49.03;;;44.40;;
14708;SDS011;7445;50.774;4.944;2023-06-22T11:12:52;48.33;;;43.63;;
14708;SDS011;7445;50.774;4.944;2023-06-22T11:15:18;48.87;;;44.27;;
14708;SDS011;7445;50.774;4.944;2023-06-22T11:17:43;49.53;;;44.73;;
14708;SDS011;7445;50.774;4.944;2023-06-22T11:20:09;50.30;;;45.60;;
14708;SDS011;7445;50.774;4.944;2023-06-22T11:22:36;51.97;;;46.97;;
14708;SDS011;7445;50.774;4.944;2023-06-22T11:25:02;53.83;;;48.63;;
14708;SDS011;7445;50.774;4.944;2023-06-22T11:27:29;54.47;;;49.33;;
14708;SDS011;7445;50.774;4.944;2023-06-22T11:29:55;53.87;;;48.27;;
14708;SDS011;7445;50.774;4.944;2023-06-22T11:32:20;55.00;;;49.60;;
14708;SDS011;7445;50.774;4.944;2023-06-22T11:34:47;57.97;;;52.07;;
14708;SDS011;7445;50.774;4.944;2023-06-22T11:37:12;53.37;;;48.40;;
14708;SDS011;7445;50.774;4.944;2023-06-22T11:39:38;57.23;;;51.63;;
14708;SDS011;7445;50.774;4.944;2023-06-22T11:42:03;58.50;;;52.97;;
14708;SDS011;7445;50.774;4.944;2023-06-22T11:44:29;58.17;;;52.57;;
14708;SDS011;7445;50.774;4.944;2023-06-22T11:46:55;56.30;;;51.17;;
14708;SDS011;7445;50.774;4.944;2023-06-22T11:49:20;56.23;;;50.83;;
14708;SDS011;7445;50.774;4.944;2023-06-22T11:51:46;59.07;;;53.20;;
14708;SDS011;7445;50.774;4.944;2023-06-22T11:54:12;55.50;;;49.57;;
14708;SDS011;7445;50.774;4.944;2023-06-22T11:56:37;56.53;;;51.10;;
14708;SDS011;7445;50.774;4.944;2023-06-22T11:59:03;56.90;;;51.50;;
14708;SDS011;7445;50.774;4.944;2023-06-22T12:01:28;56.90;;;51.73;;
14708;SDS011;7445;50.774;4.944;2023-06-22T12:03:54;59.73;;;53.80;;
14708;SDS011;7445;50.774;4.944;2023-06-22T12:06:19;58.73;;;53.17;;
14708;SDS011;7445;50.774;4.944;2023-06-22T12:08:45;60.03;;;54.10;;
14708;SDS011;7445;50.774;4.944;2023-06-22T12:11:11;60.13;;;54.10;;
14708;SDS011;7445;50.774;4.944;2023-06-22T12:13:36;58.73;;;53.07;;
14708;SDS011;7445;50.774;4.944;2023-06-22T12:16:02;60.53;;;54.47;;
14708;SDS011;7445;50.774;4.944;2023-06-22T12:18:27;61.40;;;55.50;;
14708;SDS011;7445;50.774;4.944;2023-06-22T12:20:53;61.53;;;55.43;;
14708;SDS011;7445;50.774;4.944;2023-06-22T12:23:19;63.33;;;56.90;;
14708;SDS011;7445;50.774;4.944;2023-06-22T12:25:45;64.80;;;58.37;;
14708;SDS011;7445;50.774;4.944;2023-06-22T12:28:10;62.77;;;56.67;;
14708;SDS011;7445;50.774;4.944;2023-06-22T12:30:36;61.67;;;55.63;;
14708;SDS011;7445;50.774;4.944;2023-06-22T12:33:02;63.13;;;57.33;;
14708;SDS011;7445;50.774;4.944;2023-06-22T12:35:27;61.70;;;55.60;;
14708;SDS011;7445;50.774;4.944;2023-06-22T12:37:53;64.13;;;57.87;;
14708;SDS011;7445;50.774;4.944;2023-06-22T12:40:19;63.90;;;57.73;;
14708;SDS011;7445;50.774;4.944;2023-06-22T12:42:45;62.20;;;56.20;;
14708;SDS011;7445;50.774;4.944;2023-06-22T12:45:10;62.53;;;56.27;;
14708;SDS011;7445;50.774;4.944;2023-06-22T12:47:36;60.07;;;54.23;;
14708;SDS011;7445;50.774;4.944;2023-06-22T12:50:02;63.50;;;57.40;;
14708;SDS011;7445;50.774;4.944;2023-06-22T12:52:29;59.70;;;53.93;;
14708;SDS011;7445;50.774;4.944;2023-06-22T12:54:57;62.03;;;55.83;;
14708;SDS011;7445;50.774;4.944;2023-06-22T12:57:22;63.07;;;57.03;;
14708;SDS011;7445;50.774;4.944;2023-06-22T12:59:48;62.17;;;55.70;;
14708;SDS011;7445;50.774;4.944;2023-06-22T13:02:14;64.07;;;58.20;;
14708;SDS011;7445;50.774;4.944;2023-06-22T13:04:39;62.60;;;56.37;;
14708;SDS011;7445;50.774;4.944;2023-06-22T13:07:05;65.67;;;59.03;;
14708;SDS011;7445;50.774;4.944;2023-06-22T13:09:31;65.13;;;58.97;;
14708;SDS011;7445;50.774;4.944;2023-06-22T13:11:56;66.07;;;59.33;;
14708;SDS011;7445;50.774;4.944;2023-06-22T13:14:22;69.60;;;62.37;;
14708;SDS011;7445;50.774;4.944;2023-06-22T13:16:47;68.23;;;61.33;;
14708;SDS011;7445;50.774;4.944;2023-06-22T13:19:13;69.00;;;61.80;;
14708;SDS011;7445;50.774;4.944;2023-06-22T13:21:39;68.77;;;62.13;;
14708;SDS011;7445;50.774;4.944;2023-06-22T13:24:05;69.07;;;62.00;;
14708;SDS011;7445;50.774;4.944;2023-06-22T13:26:31;65.97;;;59.17;;
14708;SDS011;7445;50.774;4.944;2023-06-22T13:28:57;69.83;;;62.80;;
14708;SDS011;7445;50.774;4.944;2023-06-22T13:31:23;65.50;;;59.20;;
14708;SDS011;7445;50.774;4.944;2023-06-22T13:33:48;66.20;;;59.93;;
14708;SDS011;7445;50.774;4.944;2023-06-22T13:36:17;68.00;;;61.57;;
14708;SDS011;7445;50.774;4.944;2023-06-22T13:38:43;72.37;;;65.17;;
14708;SDS011;7445;50.774;4.944;2023-06-22T13:41:08;69.37;;;62.77;;
14708;SDS011;7445;50.774;4.944;2023-06-22T13:43:34;72.50;;;65.07;;
14708;SDS011;7445;50.774;4.944;2023-06-22T13:45:59;67.63;;;61.00;;
14708;SDS011;7445;50.774;4.944;2023-06-22T13:48:25;68.63;;;61.93;;
14708;SDS011;7445;50.774;4.944;2023-06-22T13:50:51;68.10;;;61.47;;
14708;SDS011;7445;50.774;4.944;2023-06-22T13:53:17;63.80;;;57.67;;
14708;SDS011;7445;50.774;4.944;2023-06-22T13:55:43;64.90;;;58.50;;
14708;SDS011;7445;50.774;4.944;2023-06-22T13:58:08;63.10;;;57.00;;
14708;SDS011;7445;50.774;4.944;2023-06-22T14:00:34;62.73;;;56.80;;
14708;SDS011;7445;50.774;4.944;2023-06-22T14:03:00;61.47;;;55.70;;
14708;SDS011;7445;50.774;4.944;2023-06-22T14:05:25;63.10;;;57.17;;
14708;SDS011;7445;50.774;4.944;2023-06-22T14:07:51;62.23;;;55.80;;
14708;SDS011;7445;50.774;4.944;2023-06-22T14:10:17;66.80;;;60.10;;
14708;SDS011;7445;50.774;4.944;2023-06-22T14:12:42;63.33;;;57.37;;
14708;SDS011;7445;50.774;4.944;2023-06-22T14:15:08;61.67;;;55.53;;
14708;SDS011;7445;50.774;4.944;2023-06-22T14:17:34;61.00;;;55.30;;
14708;SDS011;7445;50.774;4.944;2023-06-22T14:19:59;59.80;;;54.33;;
14708;SDS011;7445;50.774;4.944;2023-06-22T14:22:25;61.30;;;55.47;;
14708;SDS011;7445;50.774;4.944;2023-06-22T14:24:54;59.43;;;54.10;;
14708;SDS011;7445;50.774;4.944;2023-06-22T14:27:21;58.33;;;52.83;;
14708;SDS011;7445;50.774;4.944;2023-06-22T14:29:46;62.37;;;56.50;;
14708;SDS011;7445;50.774;4.944;2023-06-22T14:32:12;59.27;;;53.67;;
14708;SDS011;7445;50.774;4.944;2023-06-22T14:34:38;60.47;;;54.67;;
14708;SDS011;7445;50.774;4.944;2023-06-22T14:37:07;59.57;;;53.83;;
14708;SDS011;7445;50.774;4.944;2023-06-22T14:39:35;50.47;;;45.80;;
14708;SDS011;7445;50.774;4.944;2023-06-22T14:42:01;53.80;;;48.60;;
14708;SDS011;7445;50.774;4.944;2023-06-22T14:44:29;53.43;;;48.27;;
14708;SDS011;7445;50.774;4.944;2023-06-22T14:46:58;52.87;;;47.97;;
14708;SDS011;7445;50.774;4.944;2023-06-22T14:49:24;53.60;;;48.57;;
14708;SDS011;7445;50.774;4.944;2023-06-22T14:51:49;47.83;;;43.27;;
14708;SDS011;7445;50.774;4.944;2023-06-22T14:54:15;49.50;;;44.87;;
14708;SDS011;7445;50.774;4.944;2023-06-22T14:56:40;48.10;;;43.70;;
14708;SDS011;7445;50.774;4.944;2023-06-22T14:59:06;46.40;;;42.20;;
14708;SDS011;7445;50.774;4.944;2023-06-22T15:01:32;45.43;;;41.20;;
14708;SDS011;7445;50.774;4.944;2023-06-22T15:03:57;44.37;;;39.87;;
14708;SDS011;7445;50.774;4.944;2023-06-22T15:06:23;39.40;;;35.70;;
14708;SDS011;7445;50.774;4.944;2023-06-22T15:08:48;41.60;;;37.80;;
14708;SDS011;7445;50.774;4.944;2023-06-22T15:11:14;39.23;;;35.63;;
14708;SDS011;7445;50.774;4.944;2023-06-22T15:13:40;40.03;;;36.53;;
14708;SDS011;7445;50.774;4.944;2023-06-22T15:16:06;37.60;;;34.13;;
14708;SDS011;7445;50.774;4.944;2023-06-22T15:18:33;35.97;;;32.70;;
14708;SDS011;7445;50.774;4.944;2023-06-22T15:21:00;32.77;;;29.83;;
14708;SDS011;7445;50.774;4.944;2023-06-22T15:23:27;30.03;;;27.40;;
14708;SDS011;7445;50.774;4.944;2023-06-22T15:25:57;27.50;;;24.97;;
14708;SDS011;7445;50.774;4.944;2023-06-22T15:28:23;27.93;;;25.23;;
14708;SDS011;7445;50.774;4.944;2023-06-22T15:30:50;23.93;;;21.80;;
14708;SDS011;7445;50.774;4.944;2023-06-22T15:33:16;28.13;;;25.27;;
14708;SDS011;7445;50.774;4.944;2023-06-22T15:35:43;26.73;;;24.40;;
14708;SDS011;7445;50.774;4.944;2023-06-22T15:38:08;25.60;;;23.40;;
14708;SDS011;7445;50.774;4.944;2023-06-22T15:40:34;27.17;;;24.97;;
14708;SDS011;7445;50.774;4.944;2023-06-22T15:43:00;26.47;;;24.17;;
14708;SDS011;7445;50.774;4.944;2023-06-22T15:45:26;25.53;;;23.17;;
14708;SDS011;7445;50.774;4.944;2023-06-22T15:47:51;24.07;;;22.07;;
14708;SDS011;7445;50.774;4.944;2023-06-22T15:50:17;25.17;;;22.90;;
14708;SDS011;7445;50.774;4.944;2023-06-22T15:52:43;25.07;;;22.87;;
14708;SDS011;7445;50.774;4.944;2023-06-22T15:55:13;23.87;;;21.60;;
14708;SDS011;7445;50.774;4.944;2023-06-22T15:57:39;21.10;;;19.20;;
14708;SDS011;7445;50.774;4.944;2023-06-22T16:00:06;23.67;;;21.67;;
14708;SDS011;7445;50.774;4.944;2023-06-22T16:02:32;27.63;;;25.10;;
14708;SDS011;7445;50.774;4.944;2023-06-22T16:04:59;29.07;;;26.43;;
14708;SDS011;7445;50.774;4.944;2023-06-22T16:07:26;27.30;;;24.77;;
14708;SDS011;7445;50.774;4.944;2023-06-22T16:09:52;28.63;;;26.00;;
14708;SDS011;7445;50.774;4.944;2023-06-22T16:12:17;28.43;;;25.70;;
14708;SDS011;7445;50.774;4.944;2023-06-22T16:14:43;26.53;;;24.27;;
14708;SDS011;7445;50.774;4.944;2023-06-22T16:17:09;25.97;;;23.57;;
14708;SDS011;7445;50.774;4.944;2023-06-22T16:19:34;25.67;;;23.43;;
14708;SDS011;7445;50.774;4.944;2023-06-22T16:22:00;24.80;;;22.50;;
14708;SDS011;7445;50.774;4.944;2023-06-22T16:24:25;24.80;;;22.70;;
14708;SDS011;7445;50.774;4.944;2023-06-22T16:26:51;26.47;;;24.03;;
14708;SDS011;7445;50.774;4.944;2023-06-22T16:29:17;27.73;;;25.07;;
14708;SDS011;7445;50.774;4.944;2023-06-22T16:31:42;27.50;;;25.10;;
14708;SDS011;7445;50.774;4.944;2023-06-22T16:34:08;29.33;;;26.80;;
14708;SDS011;7445;50.774;4.944;2023-06-22T16:36:33;31.90;;;29.23;;
14708;SDS011;7445;50.774;4.944;2023-06-22T16:38:59;32.93;;;29.97;;
14708;SDS011;7445;50.774;4.944;2023-06-22T16:41:25;36.87;;;33.67;;
14708;SDS011;7445;50.774;4.944;2023-06-22T16:43:51;36.97;;;33.53;;
14708;SDS011;7445;50.774;4.944;2023-06-22T16:46:17;42.40;;;38.60;;
14708;SDS011;7445;50.774;4.944;2023-06-22T16:48:49;45.20;;;41.20;;
14708;SDS011;7445;50.774;4.944;2023-06-22T16:51:16;48.00;;;43.87;;
14708;SDS011;7445;50.774;4.944;2023-06-22T16:53:42;52.23;;;47.80;;
14708;SDS011;7445;50.774;4.944;2023-06-22T16:56:09;57.10;;;51.97;;
14708;SDS011;7445;50.774;4.944;2023-06-22T16:58:35;63.23;;;57.37;;
14708;SDS011;7445;50.774;4.944;2023-06-22T17:01:06;63.07;;;57.57;;
14708;SDS011;7445;50.774;4.944;2023-06-22T17:03:35;70.23;;;63.30;;
14708;SDS011;7445;50.774;4.944;2023-06-22T17:06:09;67.03;;;61.00;;
14708;SDS011;7445;50.774;4.944;2023-06-22T17:08:38;69.20;;;63.00;;
14708;SDS011;7445;50.774;4.944;2023-06-22T17:11:07;68.57;;;62.60;;
14708;SDS011;7445;50.774;4.944;2023-06-22T17:13:55;66.63;;;60.70;;
14708;SDS011;7445;50.774;4.944;2023-06-22T17:16:36;71.27;;;64.63;;
14708;SDS011;7445;50.774;4.944;2023-06-22T17:19:05;71.87;;;65.20;;
14708;SDS011;7445;50.774;4.944;2023-06-22T17:21:31;68.73;;;62.43;;
14708;SDS011;7445;50.774;4.944;2023-06-22T17:24:00;72.40;;;65.67;;
14708;SDS011;7445;50.774;4.944;2023-06-22T17:26:26;73.77;;;67.37;;
14708;SDS011;7445;50.774;4.944;2023-06-22T17:28:55;73.93;;;67.40;;
14708;SDS011;7445;50.774;4.944;2023-06-22T17:31:39;71.13;;;64.67;;
14708;SDS011;7445;50.774;4.944;2023-06-22T17:34:09;69.47;;;62.93;;
14708;SDS011;7445;50.774;4.944;2023-06-22T17:36:55;71.13;;;64.50;;
14708;SDS011;7445;50.774;4.944;2023-06-22T17:39:22;70.80;;;64.40;;
14708;SDS011;7445;50.774;4.944;2023-06-22T17:41:56;69.00;;;62.43;;
14708;SDS011;7445;50.774;4.944;2023-06-22T17:44:22;74.40;;;67.00;;
14708;SDS011;7445;50.774;4.944;2023-06-22T17:46:52;72.33;;;64.90;;
14708;SDS011;7445;50.774;4.944;2023-06-22T17:49:25;76.33;;;69.00;;
14708;SDS011;7445;50.774;4.944;2023-06-22T17:51:53;68.73;;;62.00;;
14708;SDS011;7445;50.774;4.944;2023-06-22T17:54:19;72.70;;;65.93;;
14708;SDS011;7445;50.774;4.944;2023-06-22T17:56:51;68.97;;;62.50;;
14708;SDS011;7445;50.774;4.944;2023-06-22T17:59:19;71.73;;;65.07;;
14708;SDS011;7445;50.774;4.944;2023-06-22T18:01:48;71.90;;;65.43;;
14708;SDS011;7445;50.774;4.944;2023-06-22T18:04:14;66.70;;;60.53;;
14708;SDS011;7445;50.774;4.944;2023-06-22T18:06:41;68.80;;;62.37;;
14708;SDS011;7445;50.774;4.944;2023-06-22T18:09:08;68.33;;;61.60;;
14708;SDS011;7445;50.774;4.944;2023-06-22T18:11:37;67.63;;;61.20;;
14708;SDS011;7445;50.774;4.944;2023-06-22T18:14:10;68.63;;;62.17;;
14708;SDS011;7445;50.774;4.944;2023-06-22T18:16:43;61.87;;;55.93;;
14708;SDS011;7445;50.774;4.944;2023-06-22T18:19:10;68.00;;;61.77;;
14708;SDS011;7445;50.774;4.944;2023-06-22T18:21:37;70.67;;;63.90;;
14708;SDS011;7445;50.774;4.944;2023-06-22T18:24:03;74.33;;;67.13;;
14708;SDS011;7445;50.774;4.944;2023-06-22T18:26:31;74.00;;;66.77;;
14708;SDS011;7445;50.774;4.944;2023-06-22T18:28:57;76.20;;;68.43;;
14708;SDS011;7445;50.774;4.944;2023-06-22T18:31:23;75.73;;;68.73;;
14708;SDS011;7445;50.774;4.944;2023-06-22T18:33:51;78.73;;;70.87;;
14708;SDS011;7445;50.774;4.944;2023-06-22T18:36:37;86.10;;;77.90;;
14708;SDS011;7445;50.774;4.944;2023-06-22T18:39:10;83.17;;;74.87;;
14708;SDS011;7445;50.774;4.944;2023-06-22T18:41:38;80.30;;;72.37;;
14708;SDS011;7445;50.774;4.944;2023-06-22T18:44:20;89.60;;;80.00;;
14708;SDS011;7445;50.774;4.944;2023-06-22T18:46:57;86.33;;;77.93;;
14708;SDS011;7445;50.774;4.944;2023-06-22T18:49:24;81.47;;;73.63;;
14708;SDS011;7445;50.774;4.944;2023-06-22T18:51:57;86.03;;;76.83;;
14708;SDS011;7445;50.774;4.944;2023-06-22T18:54:48;87.37;;;78.27;;
14708;SDS011;7445;50.774;4.944;2023-06-22T18:57:27;82.07;;;73.27;;
14708;SDS011;7445;50.774;4.944;2023-06-22T19:07:59;78.43;;;70.67;;
14708;SDS011;7445;50.774;4.944;2023-06-22T19:10:27;82.87;;;74.77;;
14708;SDS011;7445;50.774;4.944;2023-06-22T19:15:59;74.80;;;67.30;;
14708;SDS011;7445;50.774;4.944;2023-06-22T19:18:31;76.40;;;68.77;;
14708;SDS011;7445;50.774;4.944;2023-06-22T19:21:02;72.77;;;65.93;;
14708;SDS011;7445;50.774;4.944;2023-06-22T19:25:58;76.57;;;66.40;;
14708;SDS011;7445;50.774;4.944;2023-06-22T19:28:26;69.60;;;62.47;;
14708;SDS011;7445;50.774;4.944;2023-06-22T19:30:59;71.93;;;64.87;;
14708;SDS011;7445;50.774;4.944;2023-06-22T19:33:26;66.83;;;60.27;;
14708;SDS011;7445;50.774;4.944;2023-06-22T19:35:57;68.23;;;61.10;;
14708;SDS011;7445;50.774;4.944;2023-06-22T19:38:25;71.30;;;63.53;;
14708;SDS011;7445;50.774;4.944;2023-06-22T19:40:53;67.23;;;60.43;;
14708;SDS011;7445;50.774;4.944;2023-06-22T19:43:19;60.87;;;55.07;;
14708;SDS011;7445;50.774;4.944;2023-06-22T19:45:45;64.93;;;58.43;;
14708;SDS011;7445;50.774;4.944;2023-06-22T19:48:11;65.63;;;58.73;;
14708;SDS011;7445;50.774;4.944;2023-06-22T19:50:38;63.97;;;57.77;;
14708;SDS011;7445;50.774;4.944;2023-06-22T19:53:14;67.07;;;60.63;;
14708;SDS011;7445;50.774;4.944;2023-06-22T19:55:42;63.37;;;57.03;;
14708;SDS011;7445;50.774;4.944;2023-06-22T19:58:09;64.83;;;58.53;;
14708;SDS011;7445;50.774;4.944;2023-06-22T20:00:36;66.87;;;60.23;;
14708;SDS011;7445;50.774;4.944;2023-06-22T20:03:02;63.93;;;57.83;;
14708;SDS011;7445;50.774;4.944;2023-06-22T20:05:31;65.30;;;58.60;;
14708;SDS011;7445;50.774;4.944;2023-06-22T20:08:04;71.70;;;64.23;;
14708;SDS011;7445;50.774;4.944;2023-06-22T20:10:32;63.37;;;57.13;;
14708;SDS011;7445;50.774;4.944;2023-06-22T20:13:03;66.50;;;59.80;;
14708;SDS011;7445;50.774;4.944;2023-06-22T20:15:54;63.87;;;57.30;;
14708;SDS011;7445;50.774;4.944;2023-06-22T20:18:21;70.47;;;63.73;;
14708;SDS011;7445;50.774;4.944;2023-06-22T20:20:47;71.00;;;63.53;;
14708;SDS011;7445;50.774;4.944;2023-06-22T20:23:20;66.97;;;60.60;;
14708;SDS011;7445;50.774;4.944;2023-06-22T20:25:46;76.07;;;66.43;;
14708;SDS011;7445;50.774;4.944;2023-06-22T20:28:13;71.20;;;63.47;;
14708;SDS011;7445;50.774;4.944;2023-06-22T20:30:40;68.90;;;61.80;;
14708;SDS011;7445;50.774;4.944;2023-06-22T20:33:24;70.67;;;63.43;;
14708;SDS011;7445;50.774;4.944;2023-06-22T20:35:50;76.33;;;68.10;;
14708;SDS011;7445;50.774;4.944;2023-06-22T20:38:16;72.60;;;65.27;;
14708;SDS011;7445;50.774;4.944;2023-06-22T20:40:41;80.83;;;65.63;;
14708;SDS011;7445;50.774;4.944;2023-06-22T20:43:07;70.07;;;62.97;;
14708;SDS011;7445;50.774;4.944;2023-06-22T20:45:33;74.93;;;66.83;;
14708;SDS011;7445;50.774;4.944;2023-06-22T20:47:58;71.27;;;64.27;;
14708;SDS011;7445;50.774;4.944;2023-06-22T20:50:27;77.03;;;69.27;;
14708;SDS011;7445;50.774;4.944;2023-06-22T20:52:58;77.40;;;69.53;;
14708;SDS011;7445;50.774;4.944;2023-06-22T20:55:31;73.57;;;65.77;;
14708;SDS011;7445;50.774;4.944;2023-06-22T20:58:04;83.97;;;71.07;;
14708;SDS011;7445;50.774;4.944;2023-06-22T21:00:31;72.93;;;65.30;;
14708;SDS011;7445;50.774;4.944;2023-06-22T21:03:08;77.47;;;68.70;;
14708;SDS011;7445;50.774;4.944;2023-06-22T21:05:35;72.70;;;65.13;;
14708;SDS011;7445;50.774;4.944;2023-06-22T21:08:03;70.57;;;63.63;;
14708;SDS011;7445;50.774;4.944;2023-06-22T21:10:30;69.27;;;62.10;;
14708;SDS011;7445;50.774;4.944;2023-06-22T21:12:55;77.80;;;69.63;;
14708;SDS011;7445;50.774;4.944;2023-06-22T21:15:21;76.83;;;69.23;;
14708;SDS011;7445;50.774;4.944;2023-06-22T21:17:46;75.90;;;67.83;;
14708;SDS011;7445;50.774;4.944;2023-06-22T21:20:13;81.73;;;73.30;;
14708;SDS011;7445;50.774;4.944;2023-06-22T21:22:39;78.20;;;70.30;;
14708;SDS011;7445;50.774;4.944;2023-06-22T21:25:07;70.87;;;63.97;;
14708;SDS011;7445;50.774;4.944;2023-06-22T21:27:34;82.17;;;72.70;;
14708;SDS011;7445;50.774;4.944;2023-06-22T21:30:00;81.53;;;73.13;;
14708;SDS011;7445;50.774;4.944;2023-06-22T21:32:27;81.57;;;72.93;;
14708;SDS011;7445;50.774;4.944;2023-06-22T21:34:53;80.63;;;71.90;;
14708;SDS011;7445;50.774;4.944;2023-06-22T21:37:19;75.37;;;67.63;;